Terminal Aerodrome Forecast
Issued by NWS Lake Charles, LA

Home | Current Version | Previous Version | Text Only | Print | Product List | Glossary On
Versions: 1 2 3 4 5 6 7 8 9 10 11 12 13 14 15 16 17 18 19 20 21
671
FTUS44 KLCH 130547 AAA
TAFBPT
TAF AMD
KBPT 130547Z 1306/1406 VRB03KT 4SM BR SCT006 BKN040
      TEMPO 1306/1308 1SM BR BKN006
     FM130800 03008KT P6SM SCT040
     FM131400 06012KT P6SM SCT050
     FM131900 09009KT P6SM SCT100
     FM140000 11010KT P6SM SCT250=

USA.gov is the U.S. government's official web portal to all federal, state and local government web resources and services.